Elizabeth City Cg Air Station Regional Airport
KECG : rendu visible

Aérodrome :











RETROUVEZ-NOUS SUR...

 
LOGIN :

S'inscrire | Disclaimer

   EN    FR    IT 

 









Légende :    VFR   VFR Marginal   IFR   IFR Intensif   IFR Très Intensif
Visi : 
Plafond : 
>= 8 km
>= 3000ft
5 à 8 km
1000 à 3000 ft
1500m à 5 km
500 à 1000 ft
800 à 1500m
200 à 500 ft
< 800m
< 200 ft
Symboles :   Orages  Brouillard  Fortes neiges  Fortes précipitations  Vent > 20 kt






- Altitude de l'aérodrome : 12 ft


KECG - Elizabeth City Cg Air Station Regional

DERNIER METAR :
  • 221854Z VRB06KT 10SM CLR 09/M08 A3038 RMK AO2 SLP288 T00941078

METARs EXPIRÉS :
  • 221754Z 31006KT 10SM CLR 08/M08 A3041 RMK AO2 SLP298 T00831083 10083 21044 58027
  • 221654Z VRB03KT 10SM CLR 07/M09 A3045 RMK AO2 SLP310 T00721089

TAF KECG
Valide du 22 à 18h jusqu'au 23 à 18h UTC


221720Z 2218/2318 VRB05KT P6SM SKC
FM231700 21007KT P6SM SKC



MET'MAP, la Météo Aéronautique d'un coup d'oeil ! - Copyright ORBIFLY Décembre 2007 - Disclaimer

ORBIFLY MET'MAP TEAM :

Programmation & Développement : Alexandra Zaïnal
Sur une idée originale de : Baudouin d'Aumeries
Assistance à la programmation : Marc-Olivier Méhu
Soutien technique & logistique : Manuel Goepfert

Contact : metmap@orbifly.com




SOURCES & CREDITS :

   NOAA       Earth
Advisory